sensor_id;sensor_type;location;lat;lon;timestamp;P1;durP1;ratioP1;P2;durP2;ratioP2
22152;SDS011;11242;50.536;12.688;2023-05-20T00:00:35;22.92;;;19.02;;
22152;SDS011;11242;50.536;12.688;2023-05-20T00:03:01;22.35;;;18.67;;
22152;SDS011;11242;50.536;12.688;2023-05-20T00:05:26;19.60;;;17.40;;
22152;SDS011;11242;50.536;12.688;2023-05-20T00:07:52;20.75;;;18.05;;
22152;SDS011;11242;50.536;12.688;2023-05-20T00:10:17;23.10;;;18.42;;
22152;SDS011;11242;50.536;12.688;2023-05-20T00:12:43;22.17;;;19.73;;
22152;SDS011;11242;50.536;12.688;2023-05-20T00:15:08;25.25;;;19.75;;
22152;SDS011;11242;50.536;12.688;2023-05-20T00:17:36;27.75;;;20.83;;
22152;SDS011;11242;50.536;12.688;2023-05-20T00:20:01;23.17;;;20.70;;
22152;SDS011;11242;50.536;12.688;2023-05-20T00:22:29;26.40;;;22.33;;
22152;SDS011;11242;50.536;12.688;2023-05-20T00:24:55;26.75;;;21.25;;
22152;SDS011;11242;50.536;12.688;2023-05-20T00:27:20;24.77;;;21.08;;
22152;SDS011;11242;50.536;12.688;2023-05-20T00:29:46;28.55;;;22.52;;
22152;SDS011;11242;50.536;12.688;2023-05-20T00:32:11;27.88;;;23.02;;
22152;SDS011;11242;50.536;12.688;2023-05-20T00:34:38;28.73;;;22.75;;
22152;SDS011;11242;50.536;12.688;2023-05-20T00:37:03;25.95;;;21.52;;
22152;SDS011;11242;50.536;12.688;2023-05-20T00:39:29;26.30;;;22.30;;
22152;SDS011;11242;50.536;12.688;2023-05-20T00:41:55;26.83;;;22.80;;
22152;SDS011;11242;50.536;12.688;2023-05-20T00:44:24;27.98;;;23.13;;
22152;SDS011;11242;50.536;12.688;2023-05-20T00:46:50;28.40;;;23.23;;
22152;SDS011;11242;50.536;12.688;2023-05-20T00:49:18;27.88;;;23.42;;
22152;SDS011;11242;50.536;12.688;2023-05-20T00:51:43;29.70;;;24.55;;
22152;SDS011;11242;50.536;12.688;2023-05-20T00:54:10;30.65;;;24.95;;
22152;SDS011;11242;50.536;12.688;2023-05-20T00:56:35;31.73;;;25.15;;
22152;SDS011;11242;50.536;12.688;2023-05-20T00:59:02;32.55;;;24.83;;
22152;SDS011;11242;50.536;12.688;2023-05-20T01:01:27;29.45;;;23.25;;
22152;SDS011;11242;50.536;12.688;2023-05-20T01:03:53;31.50;;;24.10;;
22152;SDS011;11242;50.536;12.688;2023-05-20T01:06:19;27.95;;;22.42;;
22152;SDS011;11242;50.536;12.688;2023-05-20T01:08:44;32.40;;;25.20;;
22152;SDS011;11242;50.536;12.688;2023-05-20T01:11:12;30.83;;;24.27;;
22152;SDS011;11242;50.536;12.688;2023-05-20T01:13:49;28.50;;;24.67;;
22152;SDS011;11242;50.536;12.688;2023-05-20T01:16:19;31.65;;;24.15;;
22152;SDS011;11242;50.536;12.688;2023-05-20T01:18:48;29.48;;;25.10;;
22152;SDS011;11242;50.536;12.688;2023-05-20T01:21:19;27.17;;;23.73;;
22152;SDS011;11242;50.536;12.688;2023-05-20T01:23:46;34.90;;;24.52;;
22152;SDS011;11242;50.536;12.688;2023-05-20T01:26:12;33.72;;;23.77;;
22152;SDS011;11242;50.536;12.688;2023-05-20T01:28:39;30.77;;;24.45;;
22152;SDS011;11242;50.536;12.688;2023-05-20T01:31:14;29.63;;;23.50;;
22152;SDS011;11242;50.536;12.688;2023-05-20T01:33:44;27.60;;;22.88;;
22152;SDS011;11242;50.536;12.688;2023-05-20T01:36:13;28.40;;;23.85;;
22152;SDS011;11242;50.536;12.688;2023-05-20T01:38:39;27.90;;;23.17;;
22152;SDS011;11242;50.536;12.688;2023-05-20T01:41:06;30.33;;;24.58;;
22152;SDS011;11242;50.536;12.688;2023-05-20T01:43:32;31.70;;;25.08;;
22152;SDS011;11242;50.536;12.688;2023-05-20T01:45:58;29.60;;;24.02;;
22152;SDS011;11242;50.536;12.688;2023-05-20T01:48:26;32.47;;;24.02;;
22152;SDS011;11242;50.536;12.688;2023-05-20T01:50:52;30.65;;;24.20;;
22152;SDS011;11242;50.536;12.688;2023-05-20T01:53:17;33.08;;;24.38;;
22152;SDS011;11242;50.536;12.688;2023-05-20T01:55:43;32.65;;;25.40;;
22152;SDS011;11242;50.536;12.688;2023-05-20T01:58:09;29.10;;;24.58;;
22152;SDS011;11242;50.536;12.688;2023-05-20T02:00:34;30.65;;;24.02;;
22152;SDS011;11242;50.536;12.688;2023-05-20T02:03:00;31.70;;;25.17;;
22152;SDS011;11242;50.536;12.688;2023-05-20T02:05:27;33.63;;;25.70;;
22152;SDS011;11242;50.536;12.688;2023-05-20T02:07:53;29.98;;;24.33;;
22152;SDS011;11242;50.536;12.688;2023-05-20T02:10:19;32.65;;;23.98;;
22152;SDS011;11242;50.536;12.688;2023-05-20T02:12:45;30.65;;;24.55;;
22152;SDS011;11242;50.536;12.688;2023-05-20T02:15:12;31.85;;;25.05;;
22152;SDS011;11242;50.536;12.688;2023-05-20T02:17:39;31.85;;;24.27;;
22152;SDS011;11242;50.536;12.688;2023-05-20T02:20:07;33.15;;;24.70;;
22152;SDS011;11242;50.536;12.688;2023-05-20T02:22:34;33.17;;;25.27;;
22152;SDS011;11242;50.536;12.688;2023-05-20T02:25:01;30.38;;;24.55;;
22152;SDS011;11242;50.536;12.688;2023-05-20T02:27:27;28.92;;;24.15;;
22152;SDS011;11242;50.536;12.688;2023-05-20T02:29:53;31.45;;;24.65;;
22152;SDS011;11242;50.536;12.688;2023-05-20T02:32:18;31.63;;;25.42;;
22152;SDS011;11242;50.536;12.688;2023-05-20T02:34:45;31.08;;;25.05;;
22152;SDS011;11242;50.536;12.688;2023-05-20T02:37:11;32.55;;;25.45;;
22152;SDS011;11242;50.536;12.688;2023-05-20T02:39:36;34.22;;;26.52;;
22152;SDS011;11242;50.536;12.688;2023-05-20T02:42:02;30.42;;;25.38;;
22152;SDS011;11242;50.536;12.688;2023-05-20T02:44:28;33.25;;;26.48;;
22152;SDS011;11242;50.536;12.688;2023-05-20T02:46:54;35.38;;;26.92;;
22152;SDS011;11242;50.536;12.688;2023-05-20T02:49:20;33.70;;;27.05;;
22152;SDS011;11242;50.536;12.688;2023-05-20T02:51:46;35.58;;;27.50;;
22152;SDS011;11242;50.536;12.688;2023-05-20T02:54:12;34.92;;;27.38;;
22152;SDS011;11242;50.536;12.688;2023-05-20T02:56:38;35.00;;;27.02;;
22152;SDS011;11242;50.536;12.688;2023-05-20T02:59:04;31.65;;;25.70;;
22152;SDS011;11242;50.536;12.688;2023-05-20T03:01:31;36.60;;;26.95;;
22152;SDS011;11242;50.536;12.688;2023-05-20T03:03:59;35.92;;;28.25;;
22152;SDS011;11242;50.536;12.688;2023-05-20T03:06:26;37.72;;;27.27;;
22152;SDS011;11242;50.536;12.688;2023-05-20T03:08:54;37.00;;;28.17;;
22152;SDS011;11242;50.536;12.688;2023-05-20T03:11:19;35.60;;;28.08;;
22152;SDS011;11242;50.536;12.688;2023-05-20T03:13:46;36.33;;;27.40;;
22152;SDS011;11242;50.536;12.688;2023-05-20T03:16:14;37.15;;;29.08;;
22152;SDS011;11242;50.536;12.688;2023-05-20T03:18:42;34.85;;;28.00;;
22152;SDS011;11242;50.536;12.688;2023-05-20T03:21:08;36.58;;;27.33;;
22152;SDS011;11242;50.536;12.688;2023-05-20T03:23:34;35.50;;;28.00;;
22152;SDS011;11242;50.536;12.688;2023-05-20T03:25:59;34.63;;;27.60;;
22152;SDS011;11242;50.536;12.688;2023-05-20T03:28:26;35.83;;;28.20;;
22152;SDS011;11242;50.536;12.688;2023-05-20T03:30:52;35.95;;;27.58;;
22152;SDS011;11242;50.536;12.688;2023-05-20T03:33:17;36.05;;;26.45;;
22152;SDS011;11242;50.536;12.688;2023-05-20T03:35:43;39.03;;;28.67;;
22152;SDS011;11242;50.536;12.688;2023-05-20T03:38:08;38.30;;;28.35;;
22152;SDS011;11242;50.536;12.688;2023-05-20T03:40:36;34.17;;;27.20;;
22152;SDS011;11242;50.536;12.688;2023-05-20T03:43:02;33.35;;;26.48;;
22152;SDS011;11242;50.536;12.688;2023-05-20T03:45:28;35.17;;;27.50;;
22152;SDS011;11242;50.536;12.688;2023-05-20T03:48:04;33.55;;;26.42;;
22152;SDS011;11242;50.536;12.688;2023-05-20T03:50:32;37.35;;;28.30;;
22152;SDS011;11242;50.536;12.688;2023-05-20T03:52:59;36.50;;;28.08;;
22152;SDS011;11242;50.536;12.688;2023-05-20T03:55:24;36.92;;;28.75;;
22152;SDS011;11242;50.536;12.688;2023-05-20T03:57:50;36.75;;;27.67;;
22152;SDS011;11242;50.536;12.688;2023-05-20T04:00:16;35.20;;;27.52;;
22152;SDS011;11242;50.536;12.688;2023-05-20T04:02:42;37.67;;;27.25;;
22152;SDS011;11242;50.536;12.688;2023-05-20T04:05:10;38.78;;;28.60;;
22152;SDS011;11242;50.536;12.688;2023-05-20T04:07:37;34.72;;;27.05;;
22152;SDS011;11242;50.536;12.688;2023-05-20T04:10:05;33.80;;;27.27;;
22152;SDS011;11242;50.536;12.688;2023-05-20T04:12:32;35.45;;;27.67;;
22152;SDS011;11242;50.536;12.688;2023-05-20T04:15:00;37.13;;;27.73;;
22152;SDS011;11242;50.536;12.688;2023-05-20T04:17:29;36.38;;;27.42;;
22152;SDS011;11242;50.536;12.688;2023-05-20T04:19:55;34.58;;;27.20;;
22152;SDS011;11242;50.536;12.688;2023-05-20T04:22:22;34.95;;;25.67;;
22152;SDS011;11242;50.536;12.688;2023-05-20T04:24:48;37.17;;;26.55;;
22152;SDS011;11242;50.536;12.688;2023-05-20T04:27:13;36.20;;;27.00;;
22152;SDS011;11242;50.536;12.688;2023-05-20T04:29:40;35.38;;;26.83;;
22152;SDS011;11242;50.536;12.688;2023-05-20T04:32:13;32.60;;;26.00;;
22152;SDS011;11242;50.536;12.688;2023-05-20T04:34:42;33.95;;;26.80;;
22152;SDS011;11242;50.536;12.688;2023-05-20T04:37:09;35.10;;;26.20;;
22152;SDS011;11242;50.536;12.688;2023-05-20T04:39:36;34.03;;;26.45;;
22152;SDS011;11242;50.536;12.688;2023-05-20T04:42:02;31.95;;;25.35;;
22152;SDS011;11242;50.536;12.688;2023-05-20T04:44:28;33.15;;;26.23;;
22152;SDS011;11242;50.536;12.688;2023-05-20T04:46:54;33.85;;;26.77;;
22152;SDS011;11242;50.536;12.688;2023-05-20T04:49:22;33.35;;;25.75;;
22152;SDS011;11242;50.536;12.688;2023-05-20T04:51:50;34.75;;;26.55;;
22152;SDS011;11242;50.536;12.688;2023-05-20T04:54:17;33.78;;;26.38;;
22152;SDS011;11242;50.536;12.688;2023-05-20T04:56:44;34.38;;;26.10;;
22152;SDS011;11242;50.536;12.688;2023-05-20T04:59:10;32.42;;;25.95;;
22152;SDS011;11242;50.536;12.688;2023-05-20T05:01:38;33.78;;;26.33;;
22152;SDS011;11242;50.536;12.688;2023-05-20T05:04:04;32.75;;;25.35;;
22152;SDS011;11242;50.536;12.688;2023-05-20T05:06:29;32.38;;;24.90;;
22152;SDS011;11242;50.536;12.688;2023-05-20T05:08:57;30.80;;;23.63;;
22152;SDS011;11242;50.536;12.688;2023-05-20T05:11:22;31.60;;;24.50;;
22152;SDS011;11242;50.536;12.688;2023-05-20T05:13:48;28.40;;;23.52;;
22152;SDS011;11242;50.536;12.688;2023-05-20T05:16:14;30.00;;;24.85;;
22152;SDS011;11242;50.536;12.688;2023-05-20T05:18:41;32.00;;;25.10;;
22152;SDS011;11242;50.536;12.688;2023-05-20T05:21:06;30.33;;;23.90;;
22152;SDS011;11242;50.536;12.688;2023-05-20T05:23:33;30.35;;;22.80;;
22152;SDS011;11242;50.536;12.688;2023-05-20T05:25:59;30.73;;;23.40;;
22152;SDS011;11242;50.536;12.688;2023-05-20T05:28:25;29.83;;;23.48;;
22152;SDS011;11242;50.536;12.688;2023-05-20T05:30:52;27.70;;;22.67;;
22152;SDS011;11242;50.536;12.688;2023-05-20T05:33:19;28.02;;;23.08;;
22152;SDS011;11242;50.536;12.688;2023-05-20T05:35:45;32.50;;;24.38;;
22152;SDS011;11242;50.536;12.688;2023-05-20T05:38:11;28.88;;;22.70;;
22152;SDS011;11242;50.536;12.688;2023-05-20T05:40:36;27.73;;;22.50;;
22152;SDS011;11242;50.536;12.688;2023-05-20T05:43:02;27.92;;;23.73;;
22152;SDS011;11242;50.536;12.688;2023-05-20T05:45:28;29.95;;;22.90;;
22152;SDS011;11242;50.536;12.688;2023-05-20T05:47:54;28.08;;;21.95;;
22152;SDS011;11242;50.536;12.688;2023-05-20T05:50:19;32.00;;;26.17;;
22152;SDS011;11242;50.536;12.688;2023-05-20T05:52:45;31.15;;;24.98;;
22152;SDS011;11242;50.536;12.688;2023-05-20T05:55:11;25.75;;;21.15;;
22152;SDS011;11242;50.536;12.688;2023-05-20T05:57:37;39.42;;;32.20;;
22152;SDS011;11242;50.536;12.688;2023-05-20T06:00:03;27.30;;;21.80;;
22152;SDS011;11242;50.536;12.688;2023-05-20T06:02:43;25.38;;;20.75;;
22152;SDS011;11242;50.536;12.688;2023-05-20T06:05:09;25.40;;;21.55;;
22152;SDS011;11242;50.536;12.688;2023-05-20T06:07:35;23.67;;;21.02;;
22152;SDS011;11242;50.536;12.688;2023-05-20T06:10:00;29.98;;;24.50;;
22152;SDS011;11242;50.536;12.688;2023-05-20T06:12:26;25.88;;;21.88;;
22152;SDS011;11242;50.536;12.688;2023-05-20T06:14:52;24.08;;;19.88;;
22152;SDS011;11242;50.536;12.688;2023-05-20T06:17:18;25.63;;;20.52;;
22152;SDS011;11242;50.536;12.688;2023-05-20T06:19:43;27.25;;;21.40;;
22152;SDS011;11242;50.536;12.688;2023-05-20T06:22:09;24.70;;;20.08;;
22152;SDS011;11242;50.536;12.688;2023-05-20T06:24:35;27.30;;;19.77;;
22152;SDS011;11242;50.536;12.688;2023-05-20T06:27:01;24.20;;;20.40;;
22152;SDS011;11242;50.536;12.688;2023-05-20T06:29:28;23.92;;;19.95;;
22152;SDS011;11242;50.536;12.688;2023-05-20T06:31:54;25.02;;;20.50;;
22152;SDS011;11242;50.536;12.688;2023-05-20T06:34:19;22.83;;;20.13;;
22152;SDS011;11242;50.536;12.688;2023-05-20T06:36:45;22.50;;;18.35;;
22152;SDS011;11242;50.536;12.688;2023-05-20T06:39:11;22.25;;;18.38;;
22152;SDS011;11242;50.536;12.688;2023-05-20T06:41:38;21.85;;;18.65;;
22152;SDS011;11242;50.536;12.688;2023-05-20T06:44:07;21.55;;;18.27;;
22152;SDS011;11242;50.536;12.688;2023-05-20T06:46:56;19.70;;;17.50;;
22152;SDS011;11242;50.536;12.688;2023-05-20T06:49:21;19.25;;;15.75;;
22152;SDS011;11242;50.536;12.688;2023-05-20T06:51:48;18.08;;;16.00;;
22152;SDS011;11242;50.536;12.688;2023-05-20T06:54:13;16.83;;;14.98;;
22152;SDS011;11242;50.536;12.688;2023-05-20T06:56:40;17.15;;;15.43;;
22152;SDS011;11242;50.536;12.688;2023-05-20T06:59:05;19.38;;;16.33;;
22152;SDS011;11242;50.536;12.688;2023-05-20T07:01:33;15.77;;;14.27;;
22152;SDS011;11242;50.536;12.688;2023-05-20T07:03:59;20.40;;;14.77;;
22152;SDS011;11242;50.536;12.688;2023-05-20T07:06:25;17.20;;;15.60;;
22152;SDS011;11242;50.536;12.688;2023-05-20T07:08:51;16.13;;;14.52;;
22152;SDS011;11242;50.536;12.688;2023-05-20T07:11:18;15.27;;;13.80;;
22152;SDS011;11242;50.536;12.688;2023-05-20T07:13:43;15.10;;;13.50;;
22152;SDS011;11242;50.536;12.688;2023-05-20T07:16:09;14.43;;;12.93;;
22152;SDS011;11242;50.536;12.688;2023-05-20T07:18:37;14.18;;;12.77;;
22152;SDS011;11242;50.536;12.688;2023-05-20T07:21:03;13.18;;;11.88;;
22152;SDS011;11242;50.536;12.688;2023-05-20T07:23:35;14.05;;;12.35;;
22152;SDS011;11242;50.536;12.688;2023-05-20T07:26:00;13.27;;;11.98;;
22152;SDS011;11242;50.536;12.688;2023-05-20T07:28:27;14.05;;;12.65;;
22152;SDS011;11242;50.536;12.688;2023-05-20T07:30:53;13.77;;;12.40;;
22152;SDS011;11242;50.536;12.688;2023-05-20T07:33:22;12.95;;;11.75;;
22152;SDS011;11242;50.536;12.688;2023-05-20T07:35:47;11.77;;;10.65;;
22152;SDS011;11242;50.536;12.688;2023-05-20T07:38:13;12.82;;;11.63;;
22152;SDS011;11242;50.536;12.688;2023-05-20T07:40:40;13.35;;;11.98;;
22152;SDS011;11242;50.536;12.688;2023-05-20T07:43:07;13.60;;;12.15;;
22152;SDS011;11242;50.536;12.688;2023-05-20T07:45:34;13.68;;;12.27;;
22152;SDS011;11242;50.536;12.688;2023-05-20T07:48:01;11.98;;;10.88;;
22152;SDS011;11242;50.536;12.688;2023-05-20T07:50:27;14.13;;;11.43;;
22152;SDS011;11242;50.536;12.688;2023-05-20T07:52:53;12.30;;;11.20;;
22152;SDS011;11242;50.536;12.688;2023-05-20T07:55:18;12.50;;;11.30;;
22152;SDS011;11242;50.536;12.688;2023-05-20T07:57:44;14.32;;;11.05;;
22152;SDS011;11242;50.536;12.688;2023-05-20T08:00:10;11.93;;;10.65;;
22152;SDS011;11242;50.536;12.688;2023-05-20T08:02:42;12.50;;;11.20;;
22152;SDS011;11242;50.536;12.688;2023-05-20T08:05:10;11.77;;;10.57;;
22152;SDS011;11242;50.536;12.688;2023-05-20T08:07:36;11.27;;;10.20;;
22152;SDS011;11242;50.536;12.688;2023-05-20T08:10:02;12.77;;;9.93;;
22152;SDS011;11242;50.536;12.688;2023-05-20T08:12:27;12.25;;;10.50;;
22152;SDS011;11242;50.536;12.688;2023-05-20T08:14:53;12.70;;;9.88;;
22152;SDS011;11242;50.536;12.688;2023-05-20T08:17:18;11.85;;;10.48;;
22152;SDS011;11242;50.536;12.688;2023-05-20T08:19:44;12.77;;;9.95;;
22152;SDS011;11242;50.536;12.688;2023-05-20T08:22:12;10.82;;;9.13;;
22152;SDS011;11242;50.536;12.688;2023-05-20T08:24:38;10.80;;;9.80;;
22152;SDS011;11242;50.536;12.688;2023-05-20T08:27:03;18.73;;;13.82;;
22152;SDS011;11242;50.536;12.688;2023-05-20T08:29:30;11.23;;;8.95;;
22152;SDS011;11242;50.536;12.688;2023-05-20T08:31:57;9.40;;;8.45;;
22152;SDS011;11242;50.536;12.688;2023-05-20T08:34:24;9.88;;;8.38;;
22152;SDS011;11242;50.536;12.688;2023-05-20T08:36:50;15.70;;;8.93;;
22152;SDS011;11242;50.536;12.688;2023-05-20T08:39:16;9.77;;;8.88;;
22152;SDS011;11242;50.536;12.688;2023-05-20T08:41:42;11.25;;;10.25;;
22152;SDS011;11242;50.536;12.688;2023-05-20T08:44:11;10.38;;;9.38;;
22152;SDS011;11242;50.536;12.688;2023-05-20T08:46:38;9.73;;;8.63;;
22152;SDS011;11242;50.536;12.688;2023-05-20T08:49:04;10.25;;;8.95;;
22152;SDS011;11242;50.536;12.688;2023-05-20T08:51:31;9.85;;;8.25;;
22152;SDS011;11242;50.536;12.688;2023-05-20T08:54:01;10.70;;;7.97;;
22152;SDS011;11242;50.536;12.688;2023-05-20T08:56:30;10.07;;;8.82;;
22152;SDS011;11242;50.536;12.688;2023-05-20T08:58:56;8.77;;;7.97;;
22152;SDS011;11242;50.536;12.688;2023-05-20T09:01:22;8.77;;;7.88;;
22152;SDS011;11242;50.536;12.688;2023-05-20T09:03:49;10.35;;;7.68;;
22152;SDS011;11242;50.536;12.688;2023-05-20T09:06:15;8.95;;;8.13;;
22152;SDS011;11242;50.536;12.688;2023-05-20T09:08:45;8.32;;;7.63;;
22152;SDS011;11242;50.536;12.688;2023-05-20T09:11:12;8.77;;;7.97;;
22152;SDS011;11242;50.536;12.688;2023-05-20T09:13:38;12.02;;;8.40;;
22152;SDS011;11242;50.536;12.688;2023-05-20T09:16:04;15.88;;;8.57;;
22152;SDS011;11242;50.536;12.688;2023-05-20T09:18:30;9.05;;;8.25;;
22152;SDS011;11242;50.536;12.688;2023-05-20T09:20:55;13.23;;;8.10;;
22152;SDS011;11242;50.536;12.688;2023-05-20T09:23:21;9.52;;;8.20;;
22152;SDS011;11242;50.536;12.688;2023-05-20T09:25:49;10.35;;;8.05;;
22152;SDS011;11242;50.536;12.688;2023-05-20T09:28:16;9.57;;;8.43;;
22152;SDS011;11242;50.536;12.688;2023-05-20T09:30:43;10.07;;;8.57;;
22152;SDS011;11242;50.536;12.688;2023-05-20T09:33:10;10.50;;;8.95;;
22152;SDS011;11242;50.536;12.688;2023-05-20T09:35:36;11.02;;;8.73;;
22152;SDS011;11242;50.536;12.688;2023-05-20T09:38:02;10.18;;;9.10;;
22152;SDS011;11242;50.536;12.688;2023-05-20T09:40:29;11.60;;;9.25;;
22152;SDS011;11242;50.536;12.688;2023-05-20T09:42:56;10.75;;;9.50;;
22152;SDS011;11242;50.536;12.688;2023-05-20T09:45:26;10.10;;;9.05;;
22152;SDS011;11242;50.536;12.688;2023-05-20T09:47:53;9.55;;;8.68;;
22152;SDS011;11242;50.536;12.688;2023-05-20T09:50:19;11.77;;;10.10;;
22152;SDS011;11242;50.536;12.688;2023-05-20T09:52:46;11.00;;;9.85;;
22152;SDS011;11242;50.536;12.688;2023-05-20T09:55:13;35.00;;;11.65;;
22152;SDS011;11242;50.536;12.688;2023-05-20T09:57:40;10.82;;;9.60;;
22152;SDS011;11242;50.536;12.688;2023-05-20T10:00:06;14.48;;;8.75;;
22152;SDS011;11242;50.536;12.688;2023-05-20T10:02:41;10.45;;;9.15;;
22152;SDS011;11242;50.536;12.688;2023-05-20T10:05:16;11.55;;;9.18;;
22152;SDS011;11242;50.536;12.688;2023-05-20T10:10:55;9.98;;;8.93;;
22152;SDS011;11242;50.536;12.688;2023-05-20T10:16:52;10.48;;;8.95;;
22152;SDS011;11242;50.536;12.688;2023-05-20T10:19:27;17.65;;;9.68;;
22152;SDS011;11242;50.536;12.688;2023-05-20T10:24:33;10.90;;;9.73;;
22152;SDS011;11242;50.536;12.688;2023-05-20T10:29:28;17.45;;;11.98;;
22152;SDS011;11242;50.536;12.688;2023-05-20T10:31:54;14.85;;;11.43;;
22152;SDS011;11242;50.536;12.688;2023-05-20T10:34:20;10.98;;;9.82;;
22152;SDS011;11242;50.536;12.688;2023-05-20T10:39:18;16.42;;;11.15;;
22152;SDS011;11242;50.536;12.688;2023-05-20T10:41:50;10.30;;;8.98;;
22152;SDS011;11242;50.536;12.688;2023-05-20T10:44:15;17.13;;;9.20;;
22152;SDS011;11242;50.536;12.688;2023-05-20T10:46:41;10.73;;;9.40;;
22152;SDS011;11242;50.536;12.688;2023-05-20T10:49:16;15.00;;;8.82;;
22152;SDS011;11242;50.536;12.688;2023-05-20T10:51:43;10.60;;;9.25;;
22152;SDS011;11242;50.536;12.688;2023-05-20T10:54:10;10.30;;;9.18;;
22152;SDS011;11242;50.536;12.688;2023-05-20T10:56:36;9.93;;;8.93;;
22152;SDS011;11242;50.536;12.688;2023-05-20T10:59:02;9.45;;;8.65;;
22152;SDS011;11242;50.536;12.688;2023-05-20T11:01:28;10.43;;;9.43;;
22152;SDS011;11242;50.536;12.688;2023-05-20T11:03:54;10.77;;;9.40;;
22152;SDS011;11242;50.536;12.688;2023-05-20T11:06:24;9.95;;;8.95;;
22152;SDS011;11242;50.536;12.688;2023-05-20T11:08:52;10.30;;;9.30;;
22152;SDS011;11242;50.536;12.688;2023-05-20T11:11:18;14.57;;;9.35;;
22152;SDS011;11242;50.536;12.688;2023-05-20T11:13:44;12.82;;;8.90;;
22152;SDS011;11242;50.536;12.688;2023-05-20T11:16:14;10.18;;;9.27;;
22152;SDS011;11242;50.536;12.688;2023-05-20T11:18:39;10.68;;;9.68;;
22152;SDS011;11242;50.536;12.688;2023-05-20T11:21:05;10.70;;;9.70;;
22152;SDS011;11242;50.536;12.688;2023-05-20T11:23:30;10.75;;;9.68;;
22152;SDS011;11242;50.536;12.688;2023-05-20T11:25:56;11.57;;;9.45;;
22152;SDS011;11242;50.536;12.688;2023-05-20T11:28:22;11.95;;;8.95;;
22152;SDS011;11242;50.536;12.688;2023-05-20T11:30:48;10.43;;;9.43;;
22152;SDS011;11242;50.536;12.688;2023-05-20T11:33:15;13.57;;;10.20;;
22152;SDS011;11242;50.536;12.688;2023-05-20T11:35:49;10.75;;;9.65;;
22152;SDS011;11242;50.536;12.688;2023-05-20T11:38:16;10.85;;;9.32;;
22152;SDS011;11242;50.536;12.688;2023-05-20T11:40:43;12.85;;;9.60;;
22152;SDS011;11242;50.536;12.688;2023-05-20T11:43:10;13.00;;;9.45;;
22152;SDS011;11242;50.536;12.688;2023-05-20T11:45:44;11.25;;;9.60;;
22152;SDS011;11242;50.536;12.688;2023-05-20T11:48:11;13.95;;;10.07;;
22152;SDS011;11242;50.536;12.688;2023-05-20T11:50:43;10.75;;;9.77;;
22152;SDS011;11242;50.536;12.688;2023-05-20T11:53:10;13.23;;;10.10;;
22152;SDS011;11242;50.536;12.688;2023-05-20T11:55:44;14.02;;;9.85;;
22152;SDS011;11242;50.536;12.688;2023-05-20T11:58:26;11.65;;;10.45;;
22152;SDS011;11242;50.536;12.688;2023-05-20T12:00:54;12.98;;;11.52;;
22152;SDS011;11242;50.536;12.688;2023-05-20T12:03:20;46.65;;;12.80;;
22152;SDS011;11242;50.536;12.688;2023-05-20T12:05:46;11.25;;;10.15;;
22152;SDS011;11242;50.536;12.688;2023-05-20T12:08:13;12.00;;;10.80;;
22152;SDS011;11242;50.536;12.688;2023-05-20T12:10:39;14.93;;;10.98;;
22152;SDS011;11242;50.536;12.688;2023-05-20T12:13:05;12.75;;;11.45;;
22152;SDS011;11242;50.536;12.688;2023-05-20T12:15:35;11.45;;;10.35;;
22152;SDS011;11242;50.536;12.688;2023-05-20T12:18:01;11.88;;;10.48;;
22152;SDS011;11242;50.536;12.688;2023-05-20T12:20:26;14.27;;;10.00;;
22152;SDS011;11242;50.536;12.688;2023-05-20T12:22:53;12.93;;;10.55;;
22152;SDS011;11242;50.536;12.688;2023-05-20T12:25:18;11.38;;;10.38;;
22152;SDS011;11242;50.536;12.688;2023-05-20T12:27:46;12.35;;;11.00;;
22152;SDS011;11242;50.536;12.688;2023-05-20T12:30:16;11.90;;;10.57;;
22152;SDS011;11242;50.536;12.688;2023-05-20T12:32:43;11.82;;;10.63;;
22152;SDS011;11242;50.536;12.688;2023-05-20T12:35:09;14.35;;;10.45;;
22152;SDS011;11242;50.536;12.688;2023-05-20T12:37:35;12.57;;;10.70;;
22152;SDS011;11242;50.536;12.688;2023-05-20T12:40:02;12.52;;;9.95;;
22152;SDS011;11242;50.536;12.688;2023-05-20T12:42:33;12.80;;;10.60;;
22152;SDS011;11242;50.536;12.688;2023-05-20T12:44:59;10.70;;;9.65;;
22152;SDS011;11242;50.536;12.688;2023-05-20T12:47:25;13.40;;;11.27;;
22152;SDS011;11242;50.536;12.688;2023-05-20T12:49:51;11.70;;;10.45;;
22152;SDS011;11242;50.536;12.688;2023-05-20T12:52:16;11.52;;;10.35;;
22152;SDS011;11242;50.536;12.688;2023-05-20T12:54:42;11.98;;;10.75;;
22152;SDS011;11242;50.536;12.688;2023-05-20T12:57:07;15.77;;;11.25;;
22152;SDS011;11242;50.536;12.688;2023-05-20T12:59:33;11.18;;;10.15;;
22152;SDS011;11242;50.536;12.688;2023-05-20T13:01:58;12.60;;;9.63;;
22152;SDS011;11242;50.536;12.688;2023-05-20T13:04:24;12.68;;;10.45;;
22152;SDS011;11242;50.536;12.688;2023-05-20T13:06:49;13.85;;;9.95;;
22152;SDS011;11242;50.536;12.688;2023-05-20T13:09:15;11.40;;;10.30;;
22152;SDS011;11242;50.536;12.688;2023-05-20T13:11:41;11.10;;;10.00;;
22152;SDS011;11242;50.536;12.688;2023-05-20T13:14:06;10.68;;;9.63;;
22152;SDS011;11242;50.536;12.688;2023-05-20T13:16:32;11.45;;;10.18;;
22152;SDS011;11242;50.536;12.688;2023-05-20T13:18:57;11.13;;;9.88;;
22152;SDS011;11242;50.536;12.688;2023-05-20T13:21:23;10.10;;;9.10;;
22152;SDS011;11242;50.536;12.688;2023-05-20T13:23:48;15.85;;;10.07;;
22152;SDS011;11242;50.536;12.688;2023-05-20T13:26:14;10.50;;;9.40;;
22152;SDS011;11242;50.536;12.688;2023-05-20T13:28:39;11.90;;;9.20;;
22152;SDS011;11242;50.536;12.688;2023-05-20T13:31:05;11.55;;;9.70;;
22152;SDS011;11242;50.536;12.688;2023-05-20T13:33:31;10.43;;;9.30;;
22152;SDS011;11242;50.536;12.688;2023-05-20T13:35:57;10.48;;;9.48;;
22152;SDS011;11242;50.536;12.688;2023-05-20T13:38:23;10.25;;;9.23;;
22152;SDS011;11242;50.536;12.688;2023-05-20T13:40:48;13.88;;;9.80;;
22152;SDS011;11242;50.536;12.688;2023-05-20T13:43:14;11.65;;;10.45;;
22152;SDS011;11242;50.536;12.688;2023-05-20T13:45:40;10.80;;;9.63;;
22152;SDS011;11242;50.536;12.688;2023-05-20T13:48:06;10.45;;;9.25;;
22152;SDS011;11242;50.536;12.688;2023-05-20T13:50:32;10.40;;;9.40;;
22152;SDS011;11242;50.536;12.688;2023-05-20T13:52:58;11.57;;;10.38;;
22152;SDS011;11242;50.536;12.688;2023-05-20T13:55:23;11.35;;;10.13;;
22152;SDS011;11242;50.536;12.688;2023-05-20T13:57:49;10.65;;;9.63;;
22152;SDS011;11242;50.536;12.688;2023-05-20T14:00:17;11.75;;;10.38;;
22152;SDS011;11242;50.536;12.688;2023-05-20T14:02:42;11.02;;;9.95;;
22152;SDS011;11242;50.536;12.688;2023-05-20T14:05:08;11.15;;;9.95;;
22152;SDS011;11242;50.536;12.688;2023-05-20T14:07:34;14.77;;;10.60;;
22152;SDS011;11242;50.536;12.688;2023-05-20T14:09:59;11.38;;;10.27;;
22152;SDS011;11242;50.536;12.688;2023-05-20T14:12:25;11.23;;;10.13;;
22152;SDS011;11242;50.536;12.688;2023-05-20T14:14:50;12.20;;;10.88;;
22152;SDS011;11242;50.536;12.688;2023-05-20T14:17:16;11.63;;;10.52;;
22152;SDS011;11242;50.536;12.688;2023-05-20T14:19:42;13.02;;;9.98;;
22152;SDS011;11242;50.536;12.688;2023-05-20T14:22:08;12.80;;;10.73;;
22152;SDS011;11242;50.536;12.688;2023-05-20T14:24:33;11.95;;;10.75;;